Time;durP1;ratioP1;P1;durP2;ratioP2;P2;SDS_P1;SDS_P2;PMS_P1;PMS_P2;Temp;Humidity;BMP_temperature;BMP_pressure;BME280_temperature;BME280_humidity;BME280_pressure;Samples;Min_cycle;Max_cycle;Signal;HPM_P1;HPM_P2
2023/03/17 00:00:01;;;;;;;5.33;2.47;;;;;;;;;;5010304;28;20198;-73
2023/03/17 00:02:26;;;;;;;4.47;2.70;;;;;;;;;;5001126;28;20175;-72
2023/03/17 00:04:52;;;;;;;3.90;2.83;;;;;;;;;;4988703;28;20219;-73
2023/03/17 00:07:17;;;;;;;3.20;2.40;;;;;;;;;;4991473;28;20168;-73
2023/03/17 00:09:42;;;;;;;4.27;2.40;;;;;;;;;;4976099;28;20215;-73
2023/03/17 00:12:11;;;;;;;4.23;2.83;;;;;;;;;;4993812;28;20179;-73
2023/03/17 00:14:36;;;;;;;4.57;2.50;;;;;;;;;;4987214;28;20643;-73
2023/03/17 00:17:02;;;;;;;3.97;3.07;;;;;;;;;;4986828;28;20268;-73
2023/03/17 00:19:30;;;;;;;5.60;2.23;;;;;;;;;;4997381;28;20203;-73
2023/03/17 00:21:55;;;;;;;4.93;2.90;;;;;;;;;;4996633;28;20190;-73
2023/03/17 00:24:20;;;;;;;4.57;2.17;;;;;;;;;;4995975;28;20180;-73
2023/03/17 00:26:45;;;;;;;4.37;2.63;;;;;;;;;;4982721;28;20670;-73
2023/03/17 00:29:12;;;;;;;2.97;2.33;;;;;;;;;;4994881;28;20286;-73
2023/03/17 00:31:38;;;;;;;3.97;2.60;;;;;;;;;;4998910;28;20180;-72
2023/03/17 00:34:04;;;;;;;3.50;2.53;;;;;;;;;;4986451;28;20548;-73
2023/03/17 00:36:30;;;;;;;6.33;2.70;;;;;;;;;;4995799;28;20669;-73
2023/03/17 00:38:57;;;;;;;3.90;2.50;;;;;;;;;;4998082;28;20253;-72
2023/03/17 00:41:22;;;;;;;6.77;4.30;;;;;;;;;;5006328;28;20652;-72
2023/03/17 00:43:48;;;;;;;3.47;2.50;;;;;;;;;;4994072;28;20186;-73
2023/03/17 00:46:15;;;;;;;3.87;2.60;;;;;;;;;;4998796;28;20183;-73
2023/03/17 00:48:42;;;;;;;4.43;2.50;;;;;;;;;;5007424;23;20204;-70
2023/03/17 00:51:07;;;;;;;4.70;2.40;;;;;;;;;;4996400;28;20241;-68
2023/03/17 00:53:33;;;;;;;5.23;3.27;;;;;;;;;;5008810;28;20179;-69
2023/03/17 00:55:58;;;;;;;5.20;2.27;;;;;;;;;;5012698;28;20198;-68
2023/03/17 00:58:25;;;;;;;4.77;2.67;;;;;;;;;;5005328;28;20184;-68
2023/03/17 01:00:51;;;;;;;3.93;2.90;;;;;;;;;;5012153;28;20187;-68
2023/03/17 01:03:16;;;;;;;2.87;2.50;;;;;;;;;;5005537;28;20606;-68
2023/03/17 01:05:42;;;;;;;3.70;2.30;;;;;;;;;;5003994;28;20324;-68
2023/03/17 01:08:08;;;;;;;3.13;2.17;;;;;;;;;;5001315;28;20246;-68
2023/03/17 01:10:33;;;;;;;3.93;2.47;;;;;;;;;;5003857;28;20223;-68
2023/03/17 01:12:59;;;;;;;5.20;2.70;;;;;;;;;;5005951;28;20196;-67
2023/03/17 01:15:27;;;;;;;2.83;2.23;;;;;;;;;;4997650;28;20175;-68
2023/03/17 01:17:53;;;;;;;3.63;2.73;;;;;;;;;;5001224;28;20191;-69
2023/03/17 01:20:22;;;;;;;4.50;2.87;;;;;;;;;;5005202;28;20293;-68
2023/03/17 01:22:48;;;;;;;6.73;2.27;;;;;;;;;;5007557;28;20182;-69
2023/03/17 01:25:13;;;;;;;3.43;2.30;;;;;;;;;;5007542;28;20183;-68
2023/03/17 01:27:40;;;;;;;5.10;2.60;;;;;;;;;;4997139;28;20217;-68
2023/03/17 01:30:06;;;;;;;4.87;3.00;;;;;;;;;;5012592;28;20195;-69
2023/03/17 01:32:32;;;;;;;3.27;2.23;;;;;;;;;;5009526;28;20189;-68
2023/03/17 01:34:57;;;;;;;5.30;2.87;;;;;;;;;;5012793;28;20262;-68
2023/03/17 01:37:23;;;;;;;5.13;3.10;;;;;;;;;;5012783;28;20171;-68
2023/03/17 01:39:48;;;;;;;3.93;2.33;;;;;;;;;;5012738;28;20203;-68
2023/03/17 01:42:13;;;;;;;4.07;3.27;;;;;;;;;;5011856;28;20175;-68
2023/03/17 01:44:58;;;;;;;3.33;2.60;;;;;;;;;;5003825;28;20178;-68
2023/03/17 01:47:25;;;;;;;5.43;2.73;;;;;;;;;;5008947;28;20174;-68
2023/03/17 01:49:50;;;;;;;8.47;2.77;;;;;;;;;;5010811;28;20214;-69
2023/03/17 01:52:16;;;;;;;5.40;3.83;;;;;;;;;;5003300;28;20175;-69
2023/03/17 01:54:44;;;;;;;3.93;2.30;;;;;;;;;;5003482;28;20641;-68
2023/03/17 01:57:36;;;;;;;4.40;2.83;;;;;;;;;;5001871;28;20548;-68
2023/03/17 02:00:09;;;;;;;4.83;2.30;;;;;;;;;;5001689;28;20215;-68
2023/03/17 02:02:36;;;;;;;4.20;2.77;;;;;;;;;;4996393;28;20263;-68
2023/03/17 02:05:03;;;;;;;4.23;2.73;;;;;;;;;;5006860;28;20308;-68
2023/03/17 02:07:28;;;;;;;3.07;2.30;;;;;;;;;;5012534;28;20168;-69
2023/03/17 02:09:54;;;;;;;2.87;2.60;;;;;;;;;;5002607;28;20687;-68
2023/03/17 02:12:21;;;;;;;4.70;2.47;;;;;;;;;;5006327;28;20187;-69
2023/03/17 02:14:47;;;;;;;3.90;2.33;;;;;;;;;;5001810;28;20253;-68
2023/03/17 02:17:13;;;;;;;5.63;2.73;;;;;;;;;;5000964;28;20215;-68
2023/03/17 02:19:38;;;;;;;4.60;2.67;;;;;;;;;;5005809;28;20211;-69
2023/03/17 02:22:04;;;;;;;5.00;2.63;;;;;;;;;;5011468;28;20197;-69
2023/03/17 02:24:32;;;;;;;6.30;3.97;;;;;;;;;;5000395;28;20305;-69
2023/03/17 02:26:59;;;;;;;3.60;2.40;;;;;;;;;;4997687;28;20209;-68
2023/03/17 02:29:24;;;;;;;4.00;2.23;;;;;;;;;;5003770;28;20206;-68
2023/03/17 02:31:50;;;;;;;3.83;2.60;;;;;;;;;;5011537;28;20599;-69
2023/03/17 02:34:15;;;;;;;4.97;2.80;;;;;;;;;;5012166;28;20233;-68
2023/03/17 02:36:41;;;;;;;3.07;2.73;;;;;;;;;;5009209;28;20184;-68
2023/03/17 02:39:06;;;;;;;5.83;2.70;;;;;;;;;;5010161;28;20241;-68
2023/03/17 02:41:33;;;;;;;3.63;2.73;;;;;;;;;;5011029;28;20171;-68
2023/03/17 02:43:58;;;;;;;6.10;2.60;;;;;;;;;;5006589;28;20234;-68
2023/03/17 02:46:23;;;;;;;4.83;2.87;;;;;;;;;;5010868;28;20171;-68
2023/03/17 02:48:48;;;;;;;4.00;2.73;;;;;;;;;;5003150;28;20219;-69
2023/03/17 02:51:14;;;;;;;4.43;3.33;;;;;;;;;;5011444;28;20637;-69
2023/03/17 02:53:39;;;;;;;4.53;2.40;;;;;;;;;;5003054;28;20267;-69
2023/03/17 02:56:04;;;;;;;4.77;2.83;;;;;;;;;;5011227;28;20167;-69
2023/03/17 02:58:30;;;;;;;4.27;2.80;;;;;;;;;;5011545;28;20182;-68
2023/03/17 03:00:55;;;;;;;5.17;2.77;;;;;;;;;;5009771;28;20224;-69
2023/03/17 03:03:21;;;;;;;3.83;2.87;;;;;;;;;;5001470;28;20271;-68
2023/03/17 03:05:46;;;;;;;9.50;4.13;;;;;;;;;;5007229;28;20207;-69
2023/03/17 03:08:11;;;;;;;4.87;2.77;;;;;;;;;;5007347;28;20200;-69
2023/03/17 03:10:36;;;;;;;3.37;2.50;;;;;;;;;;5008598;28;20203;-68
2023/03/17 03:13:01;;;;;;;4.20;2.83;;;;;;;;;;5005532;28;20186;-68
2023/03/17 03:15:27;;;;;;;6.07;2.90;;;;;;;;;;5004697;28;20183;-69
2023/03/17 03:17:52;;;;;;;4.27;2.77;;;;;;;;;;5001655;28;20190;-69
2023/03/17 03:20:18;;;;;;;4.93;2.77;;;;;;;;;;5004438;28;20203;-68
2023/03/17 03:22:43;;;;;;;4.77;2.53;;;;;;;;;;5005542;28;20732;-69
2023/03/17 03:25:08;;;;;;;3.23;2.50;;;;;;;;;;5010079;28;20175;-68
2023/03/17 03:27:33;;;;;;;3.97;3.57;;;;;;;;;;5011106;28;20649;-69
2023/03/17 03:29:59;;;;;;;3.70;2.43;;;;;;;;;;5010641;28;20194;-68
2023/03/17 03:32:25;;;;;;;4.17;2.60;;;;;;;;;;5008999;28;20556;-68
2023/03/17 03:34:50;;;;;;;4.00;2.80;;;;;;;;;;5010087;28;20266;-68
2023/03/17 03:37:16;;;;;;;3.00;2.70;;;;;;;;;;5011446;28;20183;-69
2023/03/17 03:39:41;;;;;;;5.80;2.87;;;;;;;;;;5013066;28;20615;-68
2023/03/17 03:42:06;;;;;;;3.17;2.50;;;;;;;;;;5011844;28;20175;-69
2023/03/17 03:44:31;;;;;;;4.60;2.80;;;;;;;;;;5009420;28;20179;-69
2023/03/17 03:46:56;;;;;;;4.20;2.70;;;;;;;;;;4996667;28;20178;-69
2023/03/17 03:49:22;;;;;;;4.60;3.37;;;;;;;;;;5010593;28;20219;-70
2023/03/17 03:51:47;;;;;;;3.97;3.37;;;;;;;;;;5009011;28;20207;-69
2023/03/17 03:54:12;;;;;;;5.10;3.23;;;;;;;;;;4992165;28;20230;-69
2023/03/17 03:56:37;;;;;;;4.37;2.60;;;;;;;;;;4996877;28;20183;-69
2023/03/17 03:59:03;;;;;;;4.43;2.80;;;;;;;;;;5007223;28;20673;-69
2023/03/17 04:01:28;;;;;;;3.20;2.33;;;;;;;;;;4999459;28;20238;-69
2023/03/17 04:03:53;;;;;;;5.93;4.07;;;;;;;;;;5006691;28;20184;-69
2023/03/17 04:06:18;;;;;;;5.17;2.40;;;;;;;;;;5005914;28;20174;-68
2023/03/17 04:08:44;;;;;;;2.67;2.30;;;;;;;;;;5014301;28;20607;-69
2023/03/17 04:11:09;;;;;;;4.97;2.40;;;;;;;;;;5002874;28;20664;-69
2023/03/17 04:13:34;;;;;;;4.57;2.90;;;;;;;;;;5005219;28;20225;-68
2023/03/17 04:16:00;;;;;;;4.40;2.70;;;;;;;;;;5010076;28;20569;-69
2023/03/17 04:18:25;;;;;;;7.43;4.07;;;;;;;;;;5004401;28;20204;-69
2023/03/17 04:20:50;;;;;;;3.17;2.57;;;;;;;;;;5006172;28;20672;-69
2023/03/17 04:23:16;;;;;;;3.80;2.37;;;;;;;;;;5005477;28;20186;-69
2023/03/17 04:25:41;;;;;;;5.53;3.33;;;;;;;;;;5006805;28;20273;-69
2023/03/17 04:28:07;;;;;;;3.67;2.83;;;;;;;;;;5013591;28;20266;-69
2023/03/17 04:30:33;;;;;;;3.93;2.77;;;;;;;;;;5007386;28;20253;-69
2023/03/17 04:32:58;;;;;;;3.57;2.67;;;;;;;;;;5003949;28;20187;-69
2023/03/17 04:35:23;;;;;;;3.80;3.10;;;;;;;;;;5003623;28;20175;-69
2023/03/17 04:37:49;;;;;;;3.83;2.63;;;;;;;;;;4999311;28;20183;-69
2023/03/17 04:40:15;;;;;;;4.87;2.60;;;;;;;;;;5003679;28;20277;-69
2023/03/17 04:42:41;;;;;;;4.80;3.00;;;;;;;;;;5006131;28;20178;-69
2023/03/17 04:45:08;;;;;;;5.17;2.50;;;;;;;;;;5007324;28;20175;-69
2023/03/17 04:47:33;;;;;;;4.67;2.50;;;;;;;;;;4995430;28;20203;-69
2023/03/17 04:49:59;;;;;;;3.30;2.03;;;;;;;;;;5007764;28;20213;-69
2023/03/17 04:52:24;;;;;;;3.47;2.27;;;;;;;;;;4999465;28;20168;-69
2023/03/17 04:54:49;;;;;;;3.10;2.33;;;;;;;;;;5007467;28;20229;-70
2023/03/17 04:57:14;;;;;;;4.50;2.90;;;;;;;;;;4994868;28;20168;-68
2023/03/17 04:59:40;;;;;;;5.87;2.97;;;;;;;;;;5002110;28;20233;-69
2023/03/17 05:02:06;;;;;;;4.00;2.50;;;;;;;;;;5007699;28;20190;-69
2023/03/17 05:04:31;;;;;;;3.97;2.50;;;;;;;;;;5007699;28;20233;-69
2023/03/17 05:06:57;;;;;;;5.03;2.57;;;;;;;;;;5012952;28;20394;-69
2023/03/17 05:09:22;;;;;;;3.63;2.80;;;;;;;;;;5012350;28;20232;-70
2023/03/17 05:11:48;;;;;;;4.23;2.43;;;;;;;;;;5006279;28;20179;-68
2023/03/17 05:14:13;;;;;;;6.57;2.60;;;;;;;;;;4997159;28;20229;-68
2023/03/17 05:16:38;;;;;;;2.40;2.17;;;;;;;;;;5010931;28;20570;-68
2023/03/17 05:19:03;;;;;;;6.00;2.93;;;;;;;;;;5002235;28;20708;-68
2023/03/17 05:21:28;;;;;;;3.27;2.13;;;;;;;;;;5005065;28;20217;-68
2023/03/17 05:23:54;;;;;;;4.30;2.30;;;;;;;;;;4999197;28;20322;-68
2023/03/17 05:26:20;;;;;;;4.03;2.80;;;;;;;;;;5009592;28;20183;-68
2023/03/17 05:28:45;;;;;;;4.90;2.37;;;;;;;;;;5005100;28;20207;-68
2023/03/17 05:31:10;;;;;;;2.10;1.87;;;;;;;;;;5005646;28;20183;-68
2023/03/17 05:33:36;;;;;;;2.77;2.20;;;;;;;;;;5011470;28;20270;-68
2023/03/17 05:36:02;;;;;;;3.80;2.43;;;;;;;;;;5007222;28;20595;-68
2023/03/17 05:38:28;;;;;;;2.80;2.33;;;;;;;;;;5009507;28;20214;-68
2023/03/17 05:40:53;;;;;;;6.13;2.70;;;;;;;;;;5010936;28;20183;-68
2023/03/17 05:43:18;;;;;;;4.07;2.30;;;;;;;;;;5011197;28;20253;-69
2023/03/17 05:45:44;;;;;;;5.43;2.20;;;;;;;;;;5014465;28;20175;-68
2023/03/17 05:48:11;;;;;;;2.77;2.13;;;;;;;;;;5005462;28;20712;-68
2023/03/17 05:50:36;;;;;;;9.10;2.33;;;;;;;;;;5006126;28;20210;-69
2023/03/17 05:53:02;;;;;;;4.40;2.40;;;;;;;;;;5012426;28;20179;-68
2023/03/17 05:55:27;;;;;;;3.67;2.20;;;;;;;;;;5010683;28;20179;-69
2023/03/17 05:57:52;;;;;;;3.17;2.20;;;;;;;;;;5011604;28;20270;-69
2023/03/17 06:00:19;;;;;;;6.80;2.80;;;;;;;;;;5011084;28;20723;-69
2023/03/17 06:02:45;;;;;;;5.73;3.40;;;;;;;;;;5012292;28;20269;-68
2023/03/17 06:05:11;;;;;;;8.23;3.00;;;;;;;;;;5008631;28;20632;-68
2023/03/17 06:07:36;;;;;;;5.97;2.77;;;;;;;;;;5006565;28;20187;-68
2023/03/17 06:10:02;;;;;;;4.37;2.47;;;;;;;;;;5007169;28;20187;-69
2023/03/17 06:12:27;;;;;;;3.73;2.40;;;;;;;;;;5003957;28;20501;-69
2023/03/17 06:14:52;;;;;;;5.23;2.57;;;;;;;;;;5002103;28;20655;-69
2023/03/17 06:17:18;;;;;;;3.70;2.30;;;;;;;;;;5010448;28;20656;-69
2023/03/17 06:19:43;;;;;;;3.93;2.33;;;;;;;;;;5004253;28;20202;-68
2023/03/17 06:22:08;;;;;;;3.13;2.70;;;;;;;;;;4998776;28;20183;-68
2023/03/17 06:24:34;;;;;;;6.43;2.50;;;;;;;;;;5002332;28;20183;-69
2023/03/17 06:27:00;;;;;;;3.60;2.40;;;;;;;;;;5009080;28;20193;-69
2023/03/17 06:29:25;;;;;;;3.13;2.13;;;;;;;;;;5011072;28;20237;-68
2023/03/17 06:31:51;;;;;;;4.40;2.67;;;;;;;;;;4996581;28;20177;-68
2023/03/17 06:34:16;;;;;;;4.93;2.60;;;;;;;;;;5000901;28;20217;-69
2023/03/17 06:36:42;;;;;;;3.00;2.40;;;;;;;;;;4988736;28;20187;-70
2023/03/17 06:39:08;;;;;;;2.57;2.03;;;;;;;;;;4998950;28;20577;-68
2023/03/17 06:41:34;;;;;;;5.57;2.43;;;;;;;;;;5005681;28;20187;-68
2023/03/17 06:44:00;;;;;;;6.33;2.60;;;;;;;;;;5006604;28;20187;-70
2023/03/17 06:46:25;;;;;;;3.43;2.20;;;;;;;;;;5001747;28;20175;-70
2023/03/17 06:48:51;;;;;;;3.47;2.40;;;;;;;;;;5012161;22;20241;-73
2023/03/17 06:51:16;;;;;;;3.37;2.07;;;;;;;;;;4984991;28;20646;-74
2023/03/17 06:53:41;;;;;;;5.13;2.50;;;;;;;;;;4982273;28;20623;-71
2023/03/17 06:56:06;;;;;;;3.47;1.80;;;;;;;;;;4978524;28;20188;-73
2023/03/17 06:58:32;;;;;;;3.83;3.27;;;;;;;;;;4984170;28;20191;-74
2023/03/17 07:00:58;;;;;;;5.10;2.60;;;;;;;;;;4973949;28;20258;-74
2023/03/17 07:03:24;;;;;;;4.50;2.40;;;;;;;;;;4974581;28;20262;-73
2023/03/17 07:05:50;;;;;;;2.60;2.30;;;;;;;;;;4986463;28;20207;-73
2023/03/17 07:08:15;;;;;;;4.93;2.67;;;;;;;;;;4990749;28;20219;-73
2023/03/17 07:10:42;;;;;;;7.63;3.33;;;;;;;;;;4989324;28;20620;-73
2023/03/17 07:13:09;;;;;;;5.80;2.80;;;;;;;;;;4990505;28;20230;-73
2023/03/17 07:15:34;;;;;;;3.43;2.53;;;;;;;;;;4985728;28;20688;-73
2023/03/17 07:18:00;;;;;;;3.57;2.67;;;;;;;;;;4981563;28;20184;-73
2023/03/17 07:20:25;;;;;;;3.70;2.60;;;;;;;;;;4988905;28;20226;-73
2023/03/17 07:22:51;;;;;;;3.90;2.87;;;;;;;;;;4991789;28;20184;-73
2023/03/17 07:25:16;;;;;;;4.57;2.97;;;;;;;;;;4991712;28;20262;-73
2023/03/17 07:27:41;;;;;;;3.83;2.70;;;;;;;;;;4991807;28;20246;-73
2023/03/17 07:30:07;;;;;;;3.93;2.80;;;;;;;;;;4990806;28;20199;-72
2023/03/17 07:32:32;;;;;;;5.57;2.80;;;;;;;;;;4987913;28;20186;-72
2023/03/17 07:34:58;;;;;;;3.43;2.70;;;;;;;;;;4991723;28;20247;-73
2023/03/17 07:37:23;;;;;;;4.00;2.63;;;;;;;;;;4992909;28;20175;-72
2023/03/17 07:39:49;;;;;;;3.20;2.30;;;;;;;;;;4997062;28;20211;-72
2023/03/17 07:42:15;;;;;;;5.10;3.57;;;;;;;;;;4996499;28;20187;-72
2023/03/17 07:44:41;;;;;;;3.10;2.73;;;;;;;;;;4994763;28;20187;-72
2023/03/17 07:47:07;;;;;;;4.53;2.60;;;;;;;;;;4996320;28;20186;-73
2023/03/17 07:49:32;;;;;;;5.50;2.73;;;;;;;;;;4997365;28;20215;-73
2023/03/17 07:51:58;;;;;;;4.00;2.77;;;;;;;;;;4996867;28;20646;-72
2023/03/17 07:54:24;;;;;;;2.87;2.53;;;;;;;;;;4990223;28;20222;-73
2023/03/17 07:56:49;;;;;;;2.87;2.20;;;;;;;;;;4995424;28;20265;-73
2023/03/17 07:59:14;;;;;;;6.03;2.60;;;;;;;;;;4994695;28;20703;-73
2023/03/17 08:01:40;;;;;;;4.27;2.70;;;;;;;;;;4995341;28;20657;-73
2023/03/17 08:04:06;;;;;;;4.53;2.77;;;;;;;;;;4993846;28;20563;-73
2023/03/17 08:06:31;;;;;;;3.80;2.53;;;;;;;;;;4994869;28;20191;-74
2023/03/17 08:08:57;;;;;;;5.00;2.72;;;;;;;;;;4995187;28;20709;-73
2023/03/17 08:11:22;;;;;;;7.10;2.53;;;;;;;;;;4995330;28;20234;-73
2023/03/17 08:13:48;;;;;;;7.47;4.05;;;;;;;;;;4991739;28;20195;-73
2023/03/17 08:16:14;;;;;;;5.43;2.40;;;;;;;;;;4989243;28;20605;-71
2023/03/17 08:18:39;;;;;;;3.63;2.40;;;;;;;;;;4991960;28;20211;-73
2023/03/17 08:21:05;;;;;;;4.78;2.47;;;;;;;;;;4992765;28;20179;-73
2023/03/17 08:23:31;;;;;;;6.50;2.97;;;;;;;;;;4992327;28;20188;-73
2023/03/17 08:26:00;;;;;;;5.20;2.75;;;;;;;;;;4988795;28;20179;-73
2023/03/17 08:28:26;;;;;;;3.72;2.45;;;;;;;;;;4987401;28;20195;-73
2023/03/17 08:30:52;;;;;;;4.03;2.47;;;;;;;;;;4987098;28;20187;-73
2023/03/17 08:33:17;;;;;;;4.38;2.42;;;;;;;;;;4980366;28;20230;-73
2023/03/17 08:35:42;;;;;;;2.95;2.33;;;;;;;;;;4985508;28;20254;-73
2023/03/17 08:38:08;;;;;;;5.82;2.45;;;;;;;;;;4991644;28;20229;-71
2023/03/17 08:40:33;;;;;;;3.35;2.45;;;;;;;;;;4994826;28;20226;-72
2023/03/17 08:42:58;;;;;;;3.47;2.47;;;;;;;;;;4987506;28;20188;-73
2023/03/17 08:45:24;;;;;;;4.32;2.60;;;;;;;;;;4990552;28;20172;-73
2023/03/17 08:47:49;;;;;;;3.42;2.20;;;;;;;;;;4989309;28;20266;-73
2023/03/17 08:50:18;;;;;;;3.05;2.45;;;;;;;;;;4985774;28;20760;-71
2023/03/17 08:52:44;;;;;;;4.85;2.67;;;;;;;;;;4986979;28;20211;-73
2023/03/17 08:55:11;;;;;;;6.28;2.67;;;;;;;;;;4985452;28;20604;-73
2023/03/17 08:57:36;;;;;;;3.28;2.42;;;;;;;;;;4991520;28;20221;-73
2023/03/17 09:00:09;;;;;;;5.60;2.75;;;;;;;;;;4980852;28;20191;-73
2023/03/17 09:02:34;;;;;;;4.30;2.72;;;;;;;;;;4991213;28;20540;-73
2023/03/17 09:05:00;;;;;;;3.63;2.55;;;;;;;;;;4986716;28;20186;-71
2023/03/17 09:07:25;;;;;;;2.70;2.50;;;;;;;;;;4986238;28;20633;-72
2023/03/17 09:09:50;;;;;;;3.92;2.70;;;;;;;;;;4995246;28;20249;-72
2023/03/17 09:12:15;;;;;;;3.17;2.47;;;;;;;;;;4984538;28;20420;-71
2023/03/17 09:14:41;;;;;;;2.92;2.30;;;;;;;;;;4990246;28;20547;-71
2023/03/17 09:17:07;;;;;;;4.90;2.70;;;;;;;;;;4986081;28;20665;-74
2023/03/17 09:19:32;;;;;;;4.03;2.70;;;;;;;;;;4984331;28;20291;-72
2023/03/17 09:21:57;;;;;;;3.97;2.58;;;;;;;;;;4985104;28;20263;-73
2023/03/17 09:24:23;;;;;;;4.63;2.80;;;;;;;;;;4983348;28;20187;-73
2023/03/17 09:26:48;;;;;;;4.35;2.97;;;;;;;;;;4987148;28;20246;-73
2023/03/17 09:29:14;;;;;;;4.35;2.50;;;;;;;;;;4983387;28;20215;-73
2023/03/17 09:31:40;;;;;;;7.28;3.50;;;;;;;;;;4989951;28;20222;-73
2023/03/17 09:34:05;;;;;;;4.28;2.50;;;;;;;;;;4981988;28;20172;-74
2023/03/17 09:36:31;;;;;;;4.80;2.72;;;;;;;;;;4985262;28;20190;-73
2023/03/17 09:38:57;;;;;;;5.28;2.47;;;;;;;;;;4982168;28;20204;-73
2023/03/17 09:41:31;;;;;;;5.95;3.33;;;;;;;;;;4981738;28;20176;-72
2023/03/17 09:43:59;;;;;;;3.10;2.65;;;;;;;;;;4988106;28;20184;-72
2023/03/17 09:46:24;;;;;;;4.25;3.00;;;;;;;;;;4985216;28;20175;-72
2023/03/17 09:48:58;;;;;;;6.53;2.92;;;;;;;;;;4978835;28;20656;-72
2023/03/17 09:51:23;;;;;;;5.60;3.10;;;;;;;;;;4986239;28;20184;-73
2023/03/17 09:53:55;;;;;;;4.90;3.38;;;;;;;;;;4980729;28;20180;-72
2023/03/17 09:56:21;;;;;;;3.53;2.60;;;;;;;;;;4981445;28;20586;-73
2023/03/17 09:58:49;;;;;;;3.92;2.63;;;;;;;;;;4977836;28;20264;-71
2023/03/17 10:01:15;;;;;;;3.10;2.60;;;;;;;;;;4980894;28;20184;-71
2023/03/17 10:03:41;;;;;;;5.03;2.80;;;;;;;;;;4985912;28;20188;-71
2023/03/17 10:06:13;;;;;;;4.95;3.17;;;;;;;;;;4988266;28;20230;-71
2023/03/17 10:08:40;;;;;;;4.70;2.78;;;;;;;;;;4986924;28;20208;-71
2023/03/17 10:11:14;;;;;;;6.35;3.17;;;;;;;;;;4985819;28;20227;-71
2023/03/17 10:13:42;;;;;;;4.00;2.60;;;;;;;;;;4980971;28;20373;-71
2023/03/17 10:16:11;;;;;;;4.07;3.20;;;;;;;;;;4974512;28;20180;-71
2023/03/17 10:18:43;;;;;;;4.80;3.17;;;;;;;;;;4986210;28;20211;-73
2023/03/17 10:21:10;;;;;;;5.63;3.25;;;;;;;;;;4989190;28;20176;-73
2023/03/17 10:23:35;;;;;;;5.88;2.95;;;;;;;;;;4983269;28;20179;-73
2023/03/17 10:26:16;;;;;;;5.13;3.50;;;;;;;;;;4983207;28;20176;-71
2023/03/17 10:28:41;;;;;;;11.38;4.50;;;;;;;;;;4988018;28;20196;-71
2023/03/17 10:31:17;;;;;;;4.47;3.53;;;;;;;;;;4986496;28;20172;-71
2023/03/17 10:33:47;;;;;;;5.00;3.45;;;;;;;;;;4989867;28;20204;-71
2023/03/17 10:36:14;;;;;;;7.97;5.20;;;;;;;;;;4987124;28;20179;-71
2023/03/17 10:38:39;;;;;;;6.05;3.65;;;;;;;;;;4990283;28;20668;-71
2023/03/17 10:41:07;;;;;;;6.28;3.65;;;;;;;;;;4987804;28;20184;-71
2023/03/17 10:43:45;;;;;;;4.07;3.42;;;;;;;;;;4981537;28;20677;-71
2023/03/17 10:46:17;;;;;;;7.07;4.32;;;;;;;;;;4990262;28;20562;-71
2023/03/17 10:48:49;;;;;;;5.28;3.17;;;;;;;;;;4985227;28;20199;-71
2023/03/17 10:51:19;;;;;;;6.05;2.92;;;;;;;;;;4986052;28;20263;-71
2023/03/17 10:53:44;;;;;;;4.13;3.17;;;;;;;;;;4984102;28;20183;-71
2023/03/17 10:56:19;;;;;;;5.00;3.10;;;;;;;;;;4982503;28;20223;-71
2023/03/17 10:58:47;;;;;;;4.45;2.88;;;;;;;;;;4985491;28;20181;-71
2023/03/17 11:01:19;;;;;;;5.22;2.97;;;;;;;;;;4979018;28;20168;-72
2023/03/17 11:03:45;;;;;;;4.78;3.85;;;;;;;;;;4983186;28;20183;-72
2023/03/17 11:06:11;;;;;;;5.22;3.70;;;;;;;;;;4985843;28;20176;-71
2023/03/17 11:08:39;;;;;;;4.78;3.40;;;;;;;;;;4983201;28;20550;-71
2023/03/17 11:11:06;;;;;;;5.38;3.45;;;;;;;;;;4995329;28;20617;-71
2023/03/17 11:13:31;;;;;;;6.63;4.25;;;;;;;;;;4989076;28;20198;-71
2023/03/17 11:16:03;;;;;;;6.05;3.95;;;;;;;;;;4988580;28;20550;-71
2023/03/17 11:18:31;;;;;;;7.35;3.75;;;;;;;;;;4990390;28;20175;-71
2023/03/17 11:21:05;;;;;;;6.05;3.42;;;;;;;;;;4982440;28;20203;-71
2023/03/17 11:23:43;;;;;;;5.55;4.07;;;;;;;;;;4984651;28;20189;-71
2023/03/17 11:26:13;;;;;;;5.90;4.00;;;;;;;;;;4987621;28;20645;-71
2023/03/17 11:28:43;;;;;;;8.45;4.25;;;;;;;;;;4984589;28;20199;-71
2023/03/17 11:31:20;;;;;;;6.13;3.30;;;;;;;;;;4989554;28;20168;-71
2023/03/17 11:33:46;;;;;;;6.00;4.22;;;;;;;;;;4983529;28;20186;-71
2023/03/17 11:36:30;;;;;;;4.40;3.77;;;;;;;;;;4983650;28;20250;-71
2023/03/17 11:39:04;;;;;;;8.35;3.92;;;;;;;;;;4986002;28;20801;-71
2023/03/17 11:41:43;;;;;;;5.72;4.28;;;;;;;;;;4976504;28;20814;-71
2023/03/17 11:44:27;;;;;;;5.43;4.65;;;;;;;;;;4980685;28;20263;-71
2023/03/17 11:47:05;;;;;;;5.40;4.20;;;;;;;;;;4983429;28;20175;-71
2023/03/17 11:49:34;;;;;;;3.90;3.50;;;;;;;;;;4982640;28;20215;-71
2023/03/17 11:52:12;;;;;;;6.68;4.00;;;;;;;;;;4989067;28;20172;-71
2023/03/17 11:54:46;;;;;;;5.22;3.88;;;;;;;;;;4973747;28;20183;-71
2023/03/17 11:57:23;;;;;;;5.50;4.10;;;;;;;;;;4985910;28;20794;-71
2023/03/17 11:59:55;;;;;;;5.22;4.22;;;;;;;;;;4984233;28;20203;-71
2023/03/17 12:02:39;;;;;;;6.20;4.47;;;;;;;;;;4984750;28;20554;-71
2023/03/17 12:05:10;;;;;;;5.15;3.95;;;;;;;;;;4980278;28;20184;-71
2023/03/17 12:07:40;;;;;;;5.22;3.58;;;;;;;;;;4978063;28;20186;-71
2023/03/17 12:10:25;;;;;;;6.68;4.00;;;;;;;;;;4980961;28;20677;-71
2023/03/17 12:12:58;;;;;;;7.50;4.95;;;;;;;;;;4971790;28;20267;-71
2023/03/17 12:15:33;;;;;;;5.13;4.30;;;;;;;;;;4987974;28;20678;-71
2023/03/17 12:18:01;;;;;;;5.40;3.80;;;;;;;;;;4987532;28;20191;-71
2023/03/17 12:20:29;;;;;;;6.05;3.83;;;;;;;;;;4983656;28;20196;-71
2023/03/17 12:23:13;;;;;;;4.53;4.00;;;;;;;;;;4988606;28;20827;-71
2023/03/17 12:25:50;;;;;;;6.78;4.53;;;;;;;;;;4987415;28;20250;-71
2023/03/17 12:28:26;;;;;;;5.20;3.88;;;;;;;;;;4977352;28;20238;-71
2023/03/17 12:30:53;;;;;;;5.43;4.40;;;;;;;;;;4991413;28;20307;-71
2023/03/17 12:33:18;;;;;;;6.40;3.97;;;;;;;;;;4989902;28;20195;-71
2023/03/17 12:35:44;;;;;;;5.78;4.32;;;;;;;;;;4990197;28;20184;-71
2023/03/17 12:38:33;;;;;;;6.20;4.45;;;;;;;;;;4988337;28;20180;-71
2023/03/17 12:41:14;;;;;;;5.32;4.47;;;;;;;;;;4979968;28;20207;-71
2023/03/17 12:43:47;;;;;;;5.85;3.85;;;;;;;;;;4983911;28;20191;-71
2023/03/17 12:46:27;;;;;;;5.07;3.88;;;;;;;;;;4976949;28;20176;-71
2023/03/17 12:48:55;;;;;;;5.22;3.88;;;;;;;;;;4992357;28;20703;-71
2023/03/17 12:51:33;;;;;;;5.35;4.15;;;;;;;;;;5002395;23;20322;-70
2023/03/17 12:53:59;;;;;;;5.00;4.50;;;;;;;;;;4994077;28;20186;-69
2023/03/17 12:56:28;;;;;;;4.18;3.78;;;;;;;;;;4994662;28;20168;-69
2023/03/17 12:58:58;;;;;;;6.22;4.60;;;;;;;;;;4994873;28;20723;-70
2023/03/17 13:01:31;;;;;;;7.05;4.07;;;;;;;;;;4993133;28;20219;-68
2023/03/17 13:04:11;;;;;;;4.75;3.88;;;;;;;;;;4981714;28;20189;-68
2023/03/17 13:06:43;;;;;;;7.63;4.70;;;;;;;;;;4991402;28;20665;-68
2023/03/17 13:09:28;;;;;;;7.72;5.20;;;;;;;;;;4992678;28;20231;-68
2023/03/17 13:11:53;;;;;;;8.05;4.53;;;;;;;;;;4992390;28;20180;-68
2023/03/17 13:14:26;;;;;;;5.03;4.30;;;;;;;;;;4992387;28;20720;-68
2023/03/17 13:17:01;;;;;;;5.70;4.15;;;;;;;;;;4994194;28;20621;-68
2023/03/17 13:19:31;;;;;;;6.38;3.97;;;;;;;;;;4985203;28;20208;-68
2023/03/17 13:22:16;;;;;;;6.03;3.75;;;;;;;;;;4986273;28;20180;-68
2023/03/17 13:24:46;;;;;;;6.05;4.45;;;;;;;;;;4992905;28;20191;-68
2023/03/17 13:27:31;;;;;;;7.25;4.22;;;;;;;;;;4993938;28;20172;-68
2023/03/17 13:29:57;;;;;;;5.25;4.20;;;;;;;;;;4993178;28;20215;-68
2023/03/17 13:32:23;;;;;;;6.90;4.03;;;;;;;;;;4993761;28;20259;-68
2023/03/17 13:34:52;;;;;;;5.78;4.15;;;;;;;;;;4980996;28;20650;-68
2023/03/17 13:37:29;;;;;;;8.90;4.25;;;;;;;;;;4987602;28;20218;-68
2023/03/17 13:39:57;;;;;;;5.57;3.92;;;;;;;;;;4993392;28;20238;-68
2023/03/17 13:42:42;;;;;;;6.50;4.30;;;;;;;;;;4993698;28;20198;-68
2023/03/17 13:45:07;;;;;;;8.32;4.97;;;;;;;;;;4993328;28;20171;-68
2023/03/17 13:47:34;;;;;;;7.97;4.78;;;;;;;;;;4993392;28;20179;-68
2023/03/17 13:50:12;;;;;;;7.10;4.70;;;;;;;;;;4992933;28;20229;-68
2023/03/17 13:52:39;;;;;;;6.28;4.28;;;;;;;;;;4990221;28;20184;-68
2023/03/17 13:55:28;;;;;;;6.45;4.05;;;;;;;;;;4993157;28;20171;-69
2023/03/17 13:58:06;;;;;;;7.00;4.53;;;;;;;;;;4987778;28;20183;-68
2023/03/17 14:00:32;;;;;;;6.95;4.40;;;;;;;;;;4993199;28;20211;-68
2023/03/17 14:03:09;;;;;;;9.05;4.70;;;;;;;;;;4993094;28;20176;-68
2023/03/17 14:05:36;;;;;;;6.47;4.45;;;;;;;;;;4991156;28;20278;-68
2023/03/17 14:08:14;;;;;;;5.72;4.65;;;;;;;;;;4993328;28;20186;-68
2023/03/17 14:10:39;;;;;;;9.27;4.75;;;;;;;;;;4988685;28;20223;-68
2023/03/17 14:13:19;;;;;;;6.05;4.60;;;;;;;;;;4991635;28;20204;-68
2023/03/17 14:15:48;;;;;;;8.35;4.47;;;;;;;;;;4992917;28;20189;-69
2023/03/17 14:18:18;;;;;;;4.68;3.90;;;;;;;;;;4981038;28;20199;-68
2023/03/17 14:20:53;;;;;;;5.63;4.20;;;;;;;;;;4978311;28;20644;-68
2023/03/17 14:23:20;;;;;;;4.88;4.38;;;;;;;;;;4990556;28;20226;-68
2023/03/17 14:25:45;;;;;;;7.20;4.68;;;;;;;;;;4983234;28;20185;-68
2023/03/17 14:28:12;;;;;;;5.22;4.32;;;;;;;;;;4990939;28;20206;-68
2023/03/17 14:30:38;;;;;;;5.00;4.15;;;;;;;;;;4992613;28;20553;-68
2023/03/17 14:33:05;;;;;;;7.15;4.22;;;;;;;;;;4992456;28;20242;-69
2023/03/17 14:35:31;;;;;;;7.68;4.53;;;;;;;;;;4992718;28;20230;-68
2023/03/17 14:37:56;;;;;;;7.63;4.63;;;;;;;;;;4992563;28;20210;-68
2023/03/17 14:40:24;;;;;;;9.30;4.47;;;;;;;;;;4994733;28;20219;-69
2023/03/17 14:42:49;;;;;;;6.70;4.47;;;;;;;;;;4992133;28;20234;-68
2023/03/17 14:45:38;;;;;;;6.43;4.45;;;;;;;;;;4974432;28;20188;-68